Time;durP1;ratioP1;P1;durP2;ratioP2;P2;SDS_P1;SDS_P2;PMS_P1;PMS_P2;Temp;Humidity;BMP_temperature;BMP_pressure;BME280_temperature;BME280_humidity;BME280_pressure;Samples;Min_cycle;Max_cycle;Signal;HPM_P1;HPM_P2
2022/09/30 00:01:42;;;;;;;2.70;2.50;;;8.70;99.90;;;;;;4867511;29;20094;-60
2022/09/30 00:04:34;;;;;;;2.78;2.58;;;8.70;99.90;;;;;;4868644;29;20144;-59
2022/09/30 00:07:00;;;;;;;5.18;2.88;;;8.70;99.90;;;;;;4871759;29;20064;-61
2022/09/30 00:09:26;;;;;;;3.65;3.03;;;8.70;99.90;;;;;;4868866;29;20465;-60
2022/09/30 00:11:52;;;;;;;3.88;3.58;;;8.60;99.90;;;;;;4864359;29;20813;-60
2022/09/30 00:14:20;;;;;;;5.78;3.63;;;8.70;99.90;;;;;;4865147;29;20456;-60
2022/09/30 00:16:46;;;;;;;3.05;2.75;;;8.70;99.90;;;;;;4881648;29;20059;-60
2022/09/30 00:19:12;;;;;;;3.85;2.90;;;8.60;99.90;;;;;;4872610;29;20040;-59
2022/09/30 00:21:38;;;;;;;3.50;3.20;;;8.60;99.90;;;;;;4872451;29;20604;-59
2022/09/30 00:24:05;;;;;;;3.45;3.13;;;8.60;99.90;;;;;;4868480;29;20048;-60
2022/09/30 00:26:31;;;;;;;4.20;3.28;;;8.50;99.90;;;;;;4868337;29;20438;-59
2022/09/30 00:28:58;;;;;;;8.18;4.18;;;8.50;99.90;;;;;;4848415;29;20084;-61
2022/09/30 00:31:28;;;;;;;4.68;4.10;;;8.50;99.90;;;;;;4865400;29;20108;-61
2022/09/30 00:34:06;;;;;;;4.40;4.00;;;8.50;99.90;;;;;;4867684;29;20052;-61
2022/09/30 00:36:42;;;;;;;6.25;4.30;;;8.50;99.90;;;;;;4871760;29;25711;-61
2022/09/30 00:39:14;;;;;;;5.10;4.15;;;8.50;99.90;;;;;;4863819;29;20101;-60
2022/09/30 00:41:41;;;;;;;4.10;3.60;;;8.50;99.90;;;;;;4867744;29;21139;-60
2022/09/30 00:44:44;;;;;;;5.03;3.55;;;8.50;99.90;;;;;;4866709;29;20044;-60
2022/09/30 00:47:28;;;;;;;4.70;3.78;;;8.50;99.90;;;;;;4866496;29;20048;-60
2022/09/30 00:50:01;;;;;;;7.57;4.63;;;8.50;99.90;;;;;;4863693;29;20595;-60
2022/09/30 00:52:28;;;;;;;;;;;8.50;99.90;;;;;;4867583;29;20142;-61
2022/09/30 00:54:58;;;;;;;4.50;3.63;;;8.50;99.90;;;;;;4867262;29;21195;-61
2022/09/30 00:57:24;;;;;;;7.00;4.07;;;8.50;99.90;;;;;;4863601;29;20045;-60
2022/09/30 00:59:50;;;;;;;4.88;4.40;;;8.50;99.90;;;;;;4866911;29;20104;-61
2022/09/30 01:02:16;;;;;;;5.70;4.25;;;8.50;99.90;;;;;;4864554;29;20049;-59
2022/09/30 01:04:44;;;;;;;4.78;4.38;;;8.50;99.90;;;;;;4864330;29;20076;-59
2022/09/30 01:07:11;;;;;;;5.78;5.03;;;8.50;99.90;;;;;;4862081;29;20041;-60
2022/09/30 01:09:39;;;;;;;5.07;4.57;;;8.60;99.90;;;;;;4865369;29;20048;-60
2022/09/30 01:12:25;;;;;;;6.75;4.88;;;8.60;99.90;;;;;;4871197;29;20136;-60
2022/09/30 01:14:53;;;;;;;8.13;4.85;;;8.60;99.90;;;;;;4866402;29;20048;-61
2022/09/30 01:17:57;;;;;;;6.63;5.25;;;8.60;99.90;;;;;;4865165;29;20052;-60
2022/09/30 01:20:33;;;;;;;5.18;4.63;;;8.60;99.90;;;;;;4864331;29;20056;-60
2022/09/30 01:23:21;;;;;;;5.25;4.50;;;8.60;99.90;;;;;;4860762;29;20056;-60
2022/09/30 01:25:49;;;;;;;7.30;4.97;;;8.60;99.90;;;;;;4864961;29;20052;-60
2022/09/30 01:28:27;;;;;;;6.47;4.35;;;8.60;99.90;;;;;;4865130;29;20048;-61
2022/09/30 01:31:12;;;;;;;6.70;4.55;;;8.60;99.90;;;;;;4863177;29;20052;-59
2022/09/30 01:33:51;;;;;;;4.57;3.95;;;8.70;99.90;;;;;;4860702;29;20052;-60
2022/09/30 01:36:52;;;;;;;4.55;4.03;;;8.60;99.90;;;;;;4862037;29;20049;-61
2022/09/30 01:39:23;;;;;;;6.18;4.40;;;8.60;99.90;;;;;;4862889;29;22093;-60
2022/09/30 01:42:08;;;;;;;4.00;3.47;;;8.60;99.90;;;;;;4855769;29;20056;-61
2022/09/30 01:45:02;;;;;;;4.22;3.83;;;8.60;99.90;;;;;;4866082;29;20496;-60
2022/09/30 01:47:46;;;;;;;4.85;4.10;;;8.60;99.90;;;;;;4866436;29;20059;-60
2022/09/30 01:50:31;;;;;;;6.93;4.25;;;8.60;99.90;;;;;;4870407;29;20171;-59
2022/09/30 01:53:21;;;;;;;6.90;4.03;;;8.50;99.90;;;;;;4870323;29;20048;-60
2022/09/30 01:56:01;;;;;;;5.28;4.07;;;8.50;99.90;;;;;;4872405;29;20045;-60
2022/09/30 01:58:40;;;;;;;3.53;3.22;;;8.50;99.90;;;;;;4869811;29;20048;-60
2022/09/30 02:01:13;;;;;;;4.10;3.70;;;8.50;99.90;;;;;;4870594;29;20050;-59
2022/09/30 02:03:49;;;;;;;6.80;3.33;;;8.50;99.90;;;;;;4869015;29;20571;-60
2022/09/30 02:06:20;;;;;;;3.20;2.92;;;8.50;99.90;;;;;;4872804;29;20091;-60
2022/09/30 02:09:06;;;;;;;3.90;3.50;;;8.40;99.90;;;;;;4868593;29;20109;-60
2022/09/30 02:11:37;;;;;;;3.53;3.22;;;8.40;99.90;;;;;;4875679;29;20064;-61
2022/09/30 02:14:18;;;;;;;4.07;3.55;;;8.40;99.90;;;;;;4872182;29;20220;-60
2022/09/30 02:16:54;;;;;;;6.43;3.55;;;8.30;99.90;;;;;;4870766;29;20048;-60
2022/09/30 02:19:35;;;;;;;4.05;3.50;;;8.30;99.90;;;;;;4867558;29;20581;-60
2022/09/30 02:22:08;;;;;;;5.78;3.53;;;8.30;99.90;;;;;;4855294;29;20061;-60
2022/09/30 02:24:35;;;;;;;3.67;3.38;;;8.20;99.90;;;;;;4876414;29;20287;-60
2022/09/30 02:27:10;;;;;;;3.20;2.90;;;8.20;99.90;;;;;;4869983;29;20059;-60
2022/09/30 02:29:42;;;;;;;3.15;2.85;;;8.20;99.90;;;;;;4882363;29;20052;-60
2022/09/30 02:32:24;;;;;;;3.00;2.75;;;8.20;99.90;;;;;;4870878;29;20053;-59
2022/09/30 02:34:56;;;;;;;3.30;3.00;;;8.20;99.90;;;;;;4868040;29;20057;-60
2022/09/30 02:37:40;;;;;;;3.72;3.30;;;8.10;99.90;;;;;;4871150;29;20058;-61
2022/09/30 02:40:09;;;;;;;4.65;3.42;;;8.10;99.90;;;;;;4871017;29;20084;-60
2022/09/30 02:42:36;;;;;;;9.82;3.78;;;8.10;99.90;;;;;;4870794;29;20408;-59
2022/09/30 02:45:07;;;;;;;3.05;2.75;;;8.10;99.90;;;;;;4877329;29;20040;-60
2022/09/30 02:47:51;;;;;;;5.95;2.70;;;8.00;99.90;;;;;;4876193;29;20412;-60
2022/09/30 02:50:45;;;;;;;34.28;3.28;;;8.10;99.90;;;;;;4877795;29;20088;-59
2022/09/30 02:53:42;;;;;;;3.10;2.80;;;7.90;99.90;;;;;;4888879;29;20477;-60
2022/09/30 02:56:10;;;;;;;2.90;2.60;;;7.90;99.90;;;;;;4877544;29;20040;-60
2022/09/30 02:58:38;;;;;;;4.80;3.03;;;7.90;99.90;;;;;;4878308;29;20075;-59
2022/09/30 03:01:09;;;;;;;3.65;3.03;;;7.90;99.90;;;;;;4868987;29;20052;-60
2022/09/30 03:04:04;;;;;;;4.45;3.85;;;7.90;99.90;;;;;;4883688;29;20056;-60
2022/09/30 03:06:31;;;;;;;4.70;4.20;;;7.90;99.90;;;;;;4860106;29;20052;-61
2022/09/30 03:08:57;;;;;;;3.50;3.20;;;7.90;99.90;;;;;;4870581;29;20052;-61
2022/09/30 03:11:26;;;;;;;3.80;3.50;;;7.90;99.90;;;;;;4869974;29;20045;-60
2022/09/30 03:14:30;;;;;;;4.00;3.58;;;7.90;99.90;;;;;;4883567;29;20150;-60
2022/09/30 03:17:20;;;;;;;2.78;2.55;;;7.90;99.90;;;;;;4883543;29;20045;-59
2022/09/30 03:20:12;;;;;;;5.95;2.10;;;7.90;99.90;;;;;;4884704;29;20048;-60
2022/09/30 03:23:03;;;;;;;4.80;2.90;;;7.80;99.90;;;;;;4867183;29;20544;-60
2022/09/30 03:26:11;;;;;;;3.40;3.10;;;7.70;99.90;;;;;;4855183;29;20140;-59
2022/09/30 03:29:05;;;;;;;3.47;2.70;;;7.70;99.90;;;;;;4863353;29;20057;-60
2022/09/30 03:31:57;;;;;;;5.10;2.90;;;7.60;99.90;;;;;;4865103;29;20500;-59
2022/09/30 03:34:33;;;;;;;4.03;3.22;;;7.60;99.90;;;;;;4876850;29;20045;-59
2022/09/30 03:37:01;;;;;;;4.05;2.90;;;7.60;99.90;;;;;;4866642;29;20057;-60
2022/09/30 03:39:57;;;;;;;4.53;3.92;;;7.50;99.90;;;;;;4867508;29;20737;-60
2022/09/30 03:42:40;;;;;;;4.35;3.95;;;7.50;99.90;;;;;;4869467;29;20044;-59
2022/09/30 03:45:19;;;;;;;3.97;3.67;;;7.60;99.90;;;;;;4868690;29;20049;-60
2022/09/30 03:47:50;;;;;;;3.80;3.40;;;7.50;99.90;;;;;;4866639;29;20408;-61
2022/09/30 03:50:20;;;;;;;5.22;3.55;;;7.50;99.90;;;;;;4871859;29;20259;-60
2022/09/30 03:52:48;;;;;;;4.80;4.03;;;7.50;99.90;;;;;;4867003;29;20398;-60
2022/09/30 03:55:14;;;;;;;4.72;3.95;;;7.40;99.90;;;;;;4870273;29;20053;-60
2022/09/30 03:57:41;;;;;;;4.93;4.40;;;7.50;99.90;;;;;;4874749;29;20508;-61
2022/09/30 04:00:08;;;;;;;4.82;4.05;;;7.40;99.90;;;;;;4869825;29;20040;-60
2022/09/30 04:02:36;;;;;;;4.20;3.80;;;7.40;99.90;;;;;;4867323;29;20484;-59
2022/09/30 04:05:04;;;;;;;4.35;3.88;;;7.30;99.90;;;;;;4868542;29;21411;-59
2022/09/30 04:07:30;;;;;;;6.00;3.65;;;7.30;99.90;;;;;;4867502;29;20951;-60
2022/09/30 04:09:55;;;;;;;6.00;3.83;;;7.30;99.90;;;;;;4869235;29;20104;-60
2022/09/30 04:12:21;;;;;;;3.95;3.33;;;7.20;99.90;;;;;;4867605;29;20147;-59
2022/09/30 04:14:47;;;;;;;3.65;3.33;;;7.20;99.90;;;;;;4869262;29;20052;-60
2022/09/30 04:17:13;;;;;;;4.47;4.05;;;7.10;99.90;;;;;;4870303;29;20048;-60
2022/09/30 04:19:39;;;;;;;4.75;4.25;;;7.10;99.90;;;;;;4866393;29;20057;-60
2022/09/30 04:22:06;;;;;;;7.32;4.18;;;7.10;99.90;;;;;;4870482;29;20163;-60
2022/09/30 04:24:32;;;;;;;5.40;4.80;;;7.10;99.90;;;;;;4866705;29;20092;-60
2022/09/30 04:26:58;;;;;;;7.15;5.07;;;7.10;99.90;;;;;;4868422;29;20059;-60
2022/09/30 04:29:24;;;;;;;6.45;4.97;;;7.10;99.90;;;;;;4881219;29;20057;-60
2022/09/30 04:31:49;;;;;;;6.05;4.68;;;7.10;99.90;;;;;;4868638;29;20060;-60
2022/09/30 04:34:15;;;;;;;6.13;5.38;;;7.20;99.90;;;;;;4866014;29;20049;-60
2022/09/30 04:36:42;;;;;;;7.10;4.68;;;7.20;99.90;;;;;;4868305;29;20049;-59
2022/09/30 04:39:08;;;;;;;5.72;4.90;;;7.20;99.90;;;;;;4865792;29;20055;-60
2022/09/30 04:41:33;;;;;;;9.25;5.82;;;7.20;99.90;;;;;;4872101;29;22209;-60
2022/09/30 04:44:04;;;;;;;7.32;5.22;;;7.20;99.90;;;;;;4855302;29;20090;-60
2022/09/30 04:46:33;;;;;;;5.07;4.47;;;7.20;99.90;;;;;;4867125;29;20049;-59
2022/09/30 04:48:59;;;;;;;6.68;4.97;;;7.20;99.90;;;;;;4865381;29;20049;-61
2022/09/30 04:51:26;;;;;;;5.78;4.47;;;7.20;99.90;;;;;;4865692;29;20048;-60
2022/09/30 04:53:52;;;;;;;7.00;4.80;;;7.20;99.90;;;;;;4866726;29;20044;-59
2022/09/30 04:56:18;;;;;;;7.10;5.07;;;7.20;99.90;;;;;;4873317;29;20415;-60
2022/09/30 04:58:44;;;;;;;6.25;4.80;;;7.20;99.90;;;;;;4873504;29;20053;-61
2022/09/30 05:01:13;;;;;;;5.25;4.75;;;7.20;99.90;;;;;;4875772;29;20045;-60
2022/09/30 05:03:39;;;;;;;6.97;4.40;;;7.10;99.90;;;;;;4869754;29;20053;-60
2022/09/30 05:06:06;;;;;;;5.38;4.65;;;7.10;99.90;;;;;;4869511;29;20404;-60
2022/09/30 05:08:33;;;;;;;6.10;4.80;;;7.10;99.90;;;;;;4863261;29;20147;-61
2022/09/30 05:11:01;;;;;;;7.70;5.22;;;7.10;99.90;;;;;;4867950;29;20479;-60
2022/09/30 05:13:32;;;;;;;6.30;4.40;;;7.10;99.90;;;;;;4865117;29;22382;-59
2022/09/30 05:15:58;;;;;;;6.70;4.30;;;7.10;99.90;;;;;;4867042;29;20135;-60
2022/09/30 05:18:26;;;;;;;5.15;4.63;;;7.00;99.90;;;;;;4868448;29;20059;-60
2022/09/30 05:20:54;;;;;;;5.20;4.65;;;7.00;99.90;;;;;;4872598;29;20048;-60
2022/09/30 05:23:20;;;;;;;6.18;5.18;;;7.00;99.90;;;;;;4867750;29;20048;-60
2022/09/30 05:25:46;;;;;;;6.43;5.00;;;7.00;99.90;;;;;;4867299;29;20045;-60
2022/09/30 05:28:13;;;;;;;4.35;3.95;;;7.00;99.90;;;;;;4866224;29;20040;-61
2022/09/30 05:30:44;;;;;;;7.38;4.75;;;6.90;99.90;;;;;;4866223;29;20053;-60
2022/09/30 05:33:11;;;;;;;7.70;5.03;;;6.90;99.90;;;;;;4865607;29;20120;-60
2022/09/30 05:35:41;;;;;;;7.00;6.25;;;7.00;99.90;;;;;;4864033;29;20149;-59
2022/09/30 05:38:08;;;;;;;7.07;5.97;;;6.90;99.90;;;;;;4868097;29;20056;-59
2022/09/30 05:40:38;;;;;;;5.07;4.00;;;7.00;99.90;;;;;;4871081;29;20056;-60
2022/09/30 05:43:04;;;;;;;4.05;3.33;;;7.00;99.90;;;;;;4864881;29;20100;-60
2022/09/30 05:45:30;;;;;;;3.88;3.50;;;7.00;99.90;;;;;;4861888;29;20620;-60
2022/09/30 05:47:57;;;;;;;5.10;4.60;;;6.90;99.90;;;;;;4867005;29;20045;-60
2022/09/30 05:50:23;;;;;;;5.60;4.97;;;6.90;99.90;;;;;;4864157;29;20773;-60
2022/09/30 05:52:50;;;;;;;6.00;4.30;;;6.90;99.90;;;;;;4868540;29;20056;-61
2022/09/30 05:55:17;;;;;;;5.63;4.85;;;6.90;99.90;;;;;;4871149;29;20613;-60
2022/09/30 05:57:45;;;;;;;5.20;4.70;;;6.80;99.90;;;;;;4869677;29;20473;-60
2022/09/30 06:00:11;;;;;;;6.90;5.07;;;6.80;99.90;;;;;;4883089;29;20080;-61
2022/09/30 06:02:37;;;;;;;7.80;5.38;;;6.80;99.90;;;;;;4869773;29;20476;-59
2022/09/30 06:05:07;;;;;;;6.38;5.15;;;6.80;99.90;;;;;;4867072;29;20064;-60
2022/09/30 06:07:34;;;;;;;6.20;4.95;;;6.80;99.90;;;;;;4868958;29;20135;-59
2022/09/30 06:10:01;;;;;;;6.30;5.05;;;6.70;99.90;;;;;;4866151;29;20041;-59
2022/09/30 06:12:27;;;;;;;6.88;5.10;;;6.70;99.90;;;;;;4863593;29;20068;-58
2022/09/30 06:14:54;;;;;;;7.68;5.82;;;6.70;99.90;;;;;;4865803;29;20226;-59
2022/09/30 06:17:21;;;;;;;5.75;5.15;;;6.70;99.90;;;;;;4867125;29;20052;-60
2022/09/30 06:19:48;;;;;;;12.50;7.22;;;6.70;99.90;;;;;;4868815;29;20225;-59
2022/09/30 06:22:15;;;;;;;12.50;8.63;;;6.70;99.90;;;;;;4870463;29;20049;-59
2022/09/30 06:24:41;;;;;;;11.30;9.27;;;6.80;99.90;;;;;;4871419;29;20057;-59
2022/09/30 06:27:07;;;;;;;13.63;10.10;;;6.90;99.90;;;;;;4878805;29;20075;-59
2022/09/30 06:29:33;;;;;;;13.80;10.65;;;6.90;99.90;;;;;;4869844;29;20516;-59
2022/09/30 06:31:59;;;;;;;12.75;9.45;;;6.90;99.90;;;;;;4867523;29;20055;-59
2022/09/30 06:34:25;;;;;;;12.40;9.70;;;7.00;99.90;;;;;;4867601;29;20058;-59
2022/09/30 06:36:52;;;;;;;11.45;8.93;;;7.10;99.90;;;;;;4870756;29;25172;-59
2022/09/30 06:39:18;;;;;;;10.15;8.57;;;7.10;99.90;;;;;;4870472;29;20072;-59
2022/09/30 06:41:44;;;;;;;9.30;7.10;;;7.20;99.90;;;;;;4873488;29;20414;-59
2022/09/30 06:44:10;;;;;;;12.77;8.07;;;7.20;99.90;;;;;;4873013;29;20446;-58
2022/09/30 06:46:36;;;;;;;11.85;8.52;;;7.20;99.90;;;;;;4875328;29;20052;-59
2022/09/30 06:49:03;;;;;;;13.07;8.95;;;7.20;99.90;;;;;;4886438;29;20167;-59
2022/09/30 06:51:31;;;;;;;10.57;8.88;;;7.30;99.90;;;;;;4870118;29;20079;-59
2022/09/30 06:53:59;;;;;;;9.98;8.80;;;7.30;99.90;;;;;;4872870;29;20044;-59
2022/09/30 06:56:25;;;;;;;15.40;10.52;;;7.40;99.90;;;;;;4877502;29;20411;-59
2022/09/30 06:58:51;;;;;;;13.55;9.25;;;7.50;99.90;;;;;;4876842;29;20044;-59
2022/09/30 07:01:19;;;;;;;12.70;9.27;;;7.50;99.90;;;;;;4876260;29;20116;-59
2022/09/30 07:03:45;;;;;;;14.65;10.23;;;7.60;99.90;;;;;;4875116;29;20111;-59
2022/09/30 07:06:13;;;;;;;16.75;11.32;;;7.70;99.90;;;;;;4888804;29;20108;-59
2022/09/30 07:08:39;;;;;;;16.17;12.07;;;7.80;99.90;;;;;;4873310;29;20147;-59
2022/09/30 07:11:17;;;;;;;15.77;10.55;;;7.90;99.90;;;;;;4873748;29;20424;-60
2022/09/30 07:13:44;;;;;;;15.00;11.10;;;7.90;99.90;;;;;;4874637;29;20171;-58
2022/09/30 07:16:12;;;;;;;12.98;11.23;;;8.00;99.90;;;;;;4876004;29;20117;-59
2022/09/30 07:18:41;;;;;;;13.85;10.90;;;8.10;99.90;;;;;;4876925;29;20480;-59
2022/09/30 07:21:07;;;;;;;14.10;11.25;;;8.20;99.90;;;;;;4871928;29;20057;-59
2022/09/30 07:23:33;;;;;;;14.23;10.52;;;8.20;99.90;;;;;;4868685;29;20040;-59
2022/09/30 07:26:03;;;;;;;12.35;9.90;;;8.30;99.90;;;;;;4871893;29;20091;-59
2022/09/30 07:28:34;;;;;;;13.75;10.45;;;8.30;99.90;;;;;;4873659;29;20155;-59
2022/09/30 07:31:06;;;;;;;11.40;9.73;;;8.40;99.90;;;;;;4873156;29;20072;-59
2022/09/30 07:33:32;;;;;;;10.05;8.98;;;8.40;99.90;;;;;;4873929;29;20053;-59
2022/09/30 07:36:00;;;;;;;11.50;8.27;;;8.50;99.90;;;;;;4873843;29;20082;-59
2022/09/30 07:38:29;;;;;;;16.00;9.95;;;8.50;99.90;;;;;;4872560;29;20048;-59
2022/09/30 07:41:11;;;;;;;13.43;10.27;;;8.60;99.90;;;;;;4887469;29;20080;-59
2022/09/30 07:43:38;;;;;;;11.18;9.35;;;8.70;99.90;;;;;;4874081;29;20052;-60
2022/09/30 07:46:14;;;;;;;13.70;8.90;;;8.80;99.90;;;;;;4871638;29;20056;-59
2022/09/30 07:48:43;;;;;;;11.50;8.63;;;8.90;99.90;;;;;;4855406;29;20136;-60
2022/09/30 07:51:22;;;;;;;13.23;7.57;;;9.00;99.90;;;;;;4872127;29;20140;-60
2022/09/30 07:53:54;;;;;;;10.43;8.25;;;9.10;99.90;;;;;;4870247;29;20053;-60
2022/09/30 07:56:21;;;;;;;;;;;9.20;99.90;;;;;;4885887;29;20068;-59
2022/09/30 07:58:47;;;;;;;10.73;8.73;;;9.30;99.90;;;;;;4874234;29;19923;-60
2022/09/30 08:01:14;;;;;;;11.70;8.50;;;9.40;99.90;;;;;;4872725;29;20052;-59
2022/09/30 08:03:45;;;;;;;10.30;9.00;;;9.50;99.90;;;;;;4872205;29;20072;-60
2022/09/30 08:06:14;;;;;;;10.52;9.43;;;9.70;99.90;;;;;;4874776;29;20053;-59
2022/09/30 08:08:40;;;;;;;11.25;10.05;;;9.80;99.90;;;;;;4869227;29;20084;-59
2022/09/30 08:11:06;;;;;;;13.50;10.80;;;10.00;99.90;;;;;;4871707;29;20150;-60
2022/09/30 08:13:32;;;;;;;12.23;9.85;;;10.10;99.90;;;;;;4873910;29;20124;-60
2022/09/30 08:15:58;;;;;;;10.25;8.27;;;10.30;99.90;;;;;;4870420;29;20087;-60
2022/09/30 08:18:24;;;;;;;12.13;8.85;;;10.40;99.90;;;;;;4876859;29;20052;-60
2022/09/30 08:20:50;;;;;;;10.45;7.60;;;10.50;99.90;;;;;;4855285;29;20075;-58
2022/09/30 08:23:16;;;;;;;16.05;10.18;;;10.70;99.90;;;;;;4873259;29;20076;-60
2022/09/30 08:25:42;;;;;;;12.98;10.00;;;10.80;99.90;;;;;;4873637;29;20128;-59
2022/09/30 08:28:08;;;;;;;8.98;7.70;;;10.90;99.90;;;;;;4882502;29;20049;-60
2022/09/30 08:30:35;;;;;;;7.97;7.13;;;11.10;99.90;;;;;;4876086;29;20045;-60
2022/09/30 08:33:01;;;;;;;10.15;7.88;;;11.20;99.90;;;;;;4871229;29;20060;-59
2022/09/30 08:35:27;;;;;;;9.75;8.32;;;11.30;99.90;;;;;;4868870;29;20632;-60
2022/09/30 08:37:53;;;;;;;12.48;7.28;;;11.50;99.90;;;;;;4868787;29;20044;-60
2022/09/30 08:40:28;;;;;;;7.82;6.65;;;11.60;99.90;;;;;;4872860;29;21178;-60
2022/09/30 08:43:14;;;;;;;10.63;7.32;;;11.70;99.90;;;;;;4868973;29;20045;-59
2022/09/30 08:46:02;;;;;;;8.30;6.40;;;11.80;99.90;;;;;;4869661;29;20400;-60
2022/09/30 08:49:15;;;;;;;8.63;6.65;;;12.00;99.90;;;;;;4874118;29;20045;-60
2022/09/30 08:51:46;;;;;;;8.07;6.78;;;12.20;99.90;;;;;;4855437;29;20060;-60
2022/09/30 08:54:22;;;;;;;7.63;6.43;;;12.30;99.90;;;;;;4875345;29;20049;-60
2022/09/30 08:56:48;;;;;;;7.00;6.03;;;12.40;99.90;;;;;;4871140;29;20051;-59
2022/09/30 08:59:44;;;;;;;9.27;6.38;;;12.60;99.90;;;;;;4881451;29;20440;-60
2022/09/30 09:02:19;;;;;;;7.00;5.75;;;12.70;99.90;;;;;;4868210;29;20057;-59
2022/09/30 09:04:47;;;;;;;7.80;6.10;;;12.90;99.90;;;;;;4853622;29;20048;-59
2022/09/30 09:07:21;;;;;;;8.05;5.68;;;13.00;99.90;;;;;;4870921;29;20095;-60
2022/09/30 09:10:00;;;;;;;7.70;6.20;;;13.20;99.90;;;;;;4871338;29;20142;-59
2022/09/30 09:12:49;;;;;;;11.60;7.70;;;13.30;99.90;;;;;;4868745;29;20067;-60
2022/09/30 09:15:37;;;;;;;7.93;6.55;;;13.40;99.90;;;;;;4879600;29;20048;-60
2022/09/30 09:18:22;;;;;;;9.88;6.50;;;13.60;99.90;;;;;;4872221;29;20260;-60
2022/09/30 09:20:56;;;;;;;8.93;6.68;;;13.70;99.90;;;;;;4867710;29;20869;-60
2022/09/30 09:23:23;;;;;;;8.60;6.70;;;13.90;99.90;;;;;;4873499;29;20765;-59
2022/09/30 09:25:54;;;;;;;8.57;6.00;;;14.10;99.90;;;;;;4871359;29;20059;-60
2022/09/30 09:28:43;;;;;;;11.55;9.02;;;14.20;99.90;;;;;;4874578;29;20053;-60
2022/09/30 09:31:15;;;;;;;11.18;9.48;;;14.40;99.90;;;;;;4874640;29;20064;-60
2022/09/30 09:33:42;;;;;;;13.30;8.65;;;14.50;99.90;;;;;;4860106;29;20051;-61
2022/09/30 09:36:36;;;;;;;9.38;7.90;;;14.60;99.90;;;;;;4872789;29;20116;-60
2022/09/30 09:39:05;;;;;;;7.13;5.65;;;14.60;99.90;;;;;;4871018;29;20036;-60
2022/09/30 09:41:50;;;;;;;7.95;6.40;;;14.70;99.90;;;;;;4872167;29;20059;-61
2022/09/30 09:44:36;;;;;;;5.63;5.10;;;14.80;99.90;;;;;;4876267;29;20045;-61
2022/09/30 09:47:12;;;;;;;8.02;5.20;;;15.00;99.90;;;;;;4871992;29;20053;-60
2022/09/30 09:49:43;;;;;;;6.85;4.65;;;15.20;99.90;;;;;;4869918;29;20063;-60
2022/09/30 09:52:23;;;;;;;6.55;4.78;;;15.30;99.90;;;;;;4874163;29;20056;-61
2022/09/30 09:54:51;;;;;;;6.45;4.80;;;15.40;99.90;;;;;;4876014;29;20083;-60
2022/09/30 09:57:24;;;;;;;7.63;4.10;;;15.50;99.90;;;;;;4861806;29;20062;-60
2022/09/30 09:59:53;;;;;;;;;;;15.60;99.90;;;;;;4872341;29;20445;-61
2022/09/30 10:02:23;;;;;;;5.05;3.88;;;15.60;99.90;;;;;;4876255;29;19923;-60
2022/09/30 10:04:58;;;;;;;6.93;4.30;;;15.60;99.90;;;;;;4872905;29;20124;-61
2022/09/30 10:07:26;;;;;;;4.18;3.50;;;15.60;99.90;;;;;;4870141;29;20132;-61
2022/09/30 10:10:05;;;;;;;4.35;3.95;;;15.60;99.90;;;;;;4870915;29;20052;-60
2022/09/30 10:12:31;;;;;;;4.65;4.25;;;15.60;99.90;;;;;;4868633;29;20068;-61
2022/09/30 10:15:17;;;;;;;4.97;4.47;;;15.70;99.90;;;;;;4869149;29;20092;-61
2022/09/30 10:17:48;;;;;;;6.13;4.40;;;15.80;99.90;;;;;;4866122;29;21027;-61
2022/09/30 10:20:14;;;;;;;4.43;3.50;;;15.80;99.90;;;;;;4872081;29;20136;-60
2022/09/30 10:22:40;;;;;;;3.72;3.35;;;16.00;99.90;;;;;;4886003;29;20057;-61
2022/09/30 10:25:16;;;;;;;5.53;4.30;;;16.00;99.90;;;;;;4876643;29;20355;-61
2022/09/30 10:28:22;;;;;;;7.72;4.65;;;16.10;99.90;;;;;;4874022;29;20108;-60
2022/09/30 10:30:50;;;;;;;5.18;3.95;;;16.20;99.90;;;;;;4867740;29;20134;-60
2022/09/30 10:33:24;;;;;;;3.40;3.10;;;16.30;99.90;;;;;;4872600;29;20565;-61
2022/09/30 10:36:01;;;;;;;3.03;2.70;;;16.40;99.90;;;;;;4874342;29;20045;-60
2022/09/30 10:38:30;;;;;;;4.35;3.90;;;16.60;99.90;;;;;;4877180;29;20381;-60
2022/09/30 10:40:57;;;;;;;3.42;3.10;;;16.70;99.90;;;;;;4887137;29;20128;-61
2022/09/30 10:43:30;;;;;;;3.30;3.00;;;16.70;99.90;;;;;;4874517;29;20492;-61
2022/09/30 10:46:01;;;;;;;5.30;3.38;;;16.80;99.90;;;;;;4872004;29;20044;-61
2022/09/30 10:48:32;;;;;;;3.92;3.50;;;16.90;99.90;;;;;;4871801;29;20048;-61
2022/09/30 10:50:58;;;;;;;3.83;3.05;;;17.00;99.90;;;;;;4873033;29;20112;-61
2022/09/30 10:53:28;;;;;;;4.18;3.78;;;17.10;99.90;;;;;;4874942;29;20532;-60
2022/09/30 10:55:55;;;;;;;4.15;3.67;;;17.30;99.90;;;;;;4872491;29;20132;-60
2022/09/30 10:58:41;;;;;;;4.47;3.47;;;17.20;99.90;;;;;;4873164;29;20101;-61
2022/09/30 11:01:31;;;;;;;5.78;3.50;;;17.30;99.90;;;;;;4874784;29;20140;-61
2022/09/30 11:04:06;;;;;;;6.45;3.60;;;17.40;99.90;;;;;;4870348;29;20451;-61
2022/09/30 11:06:36;;;;;;;5.03;2.92;;;17.60;99.90;;;;;;4874919;29;20052;-60
2022/09/30 11:09:07;;;;;;;3.78;2.88;;;17.60;99.90;;;;;;4873176;29;20971;-61
2022/09/30 11:11:42;;;;;;;3.70;2.70;;;17.70;99.90;;;;;;4873630;29;20061;-61
2022/09/30 11:14:37;;;;;;;2.92;2.50;;;17.70;99.90;;;;;;4870509;29;20313;-60
2022/09/30 11:17:15;;;;;;;4.32;2.05;;;17.80;99.80;;;;;;4871116;29;20048;-60
2022/09/30 11:20:08;;;;;;;2.58;1.90;;;17.90;99.30;;;;;;4872041;29;20067;-61
2022/09/30 11:22:50;;;;;;;3.47;3.00;;;18.00;98.60;;;;;;4875288;29;20523;-60
2022/09/30 11:25:26;;;;;;;3.28;1.92;;;18.00;99.10;;;;;;4876907;29;20433;-61
2022/09/30 11:28:23;;;;;;;5.32;2.75;;;18.20;98.70;;;;;;4871700;29;20048;-60
2022/09/30 11:31:03;;;;;;;6.22;2.67;;;18.30;99.00;;;;;;4873030;29;20405;-60
2022/09/30 11:33:47;;;;;;;3.45;2.40;;;18.60;98.10;;;;;;4875886;29;20100;-62
2022/09/30 11:36:22;;;;;;;2.85;1.92;;;18.70;97.30;;;;;;4871115;29;20100;-62
2022/09/30 11:39:06;;;;;;;3.90;2.40;;;18.70;96.40;;;;;;4871896;29;20506;-61
2022/09/30 11:41:34;;;;;;;6.25;2.40;;;18.80;96.30;;;;;;4875951;29;20132;-60
2022/09/30 11:44:18;;;;;;;4.80;2.60;;;18.90;96.10;;;;;;4870370;29;20059;-60
2022/09/30 11:47:15;;;;;;;2.42;1.75;;;18.90;95.80;;;;;;4875019;29;20053;-61
2022/09/30 11:50:06;;;;;;;2.72;2.35;;;19.00;95.20;;;;;;4875289;29;20060;-61
2022/09/30 11:52:38;;;;;;;2.65;1.88;;;18.90;94.30;;;;;;4868891;29;20048;-60
2022/09/30 11:55:29;;;;;;;2.22;2.00;;;18.90;94.30;;;;;;4868070;29;20083;-61
2022/09/30 11:58:19;;;;;;;2.40;2.20;;;19.00;94.30;;;;;;4871245;29;20107;-61
2022/09/30 12:00:53;;;;;;;3.35;2.28;;;19.10;94.10;;;;;;4873532;29;20048;-60
2022/09/30 12:03:26;;;;;;;3.83;2.33;;;19.30;93.20;;;;;;4875566;29;20515;-61
2022/09/30 12:06:24;;;;;;;2.47;2.28;;;19.40;92.80;;;;;;4874980;29;20048;-60
2022/09/30 12:08:58;;;;;;;3.65;2.90;;;19.50;92.00;;;;;;4869246;29;20056;-61
2022/09/30 12:12:05;;;;;;;2.92;2.20;;;19.50;91.30;;;;;;4876777;29;20060;-61
2022/09/30 12:14:40;;;;;;;3.40;2.50;;;19.50;91.20;;;;;;4871356;29;20053;-61
2022/09/30 12:17:19;;;;;;;3.20;2.90;;;19.50;90.80;;;;;;4870989;29;20041;-60
2022/09/30 12:19:49;;;;;;;2.33;2.10;;;19.40;91.20;;;;;;4875472;29;20041;-61
2022/09/30 12:22:28;;;;;;;3.25;1.95;;;19.50;91.70;;;;;;4868248;29;20053;-61
2022/09/30 12:24:54;;;;;;;2.17;1.83;;;19.60;91.80;;;;;;4885865;29;20056;-61
2022/09/30 12:27:23;;;;;;;2.00;1.33;;;19.50;91.70;;;;;;4867255;29;20049;-61
2022/09/30 12:30:18;;;;;;;2.33;1.48;;;19.40;91.50;;;;;;4868377;29;20056;-61
2022/09/30 12:33:16;;;;;;;2.72;2.03;;;19.20;91.40;;;;;;4867993;29;20484;-62
2022/09/30 12:35:51;;;;;;;5.53;1.75;;;18.90;92.20;;;;;;4866180;29;20060;-61
2022/09/30 12:38:37;;;;;;;3.38;2.00;;;18.80;92.30;;;;;;4868718;29;20140;-61
2022/09/30 12:41:24;;;;;;;4.88;2.50;;;18.80;92.70;;;;;;4870661;29;20056;-62
2022/09/30 12:44:18;;;;;;;2.28;1.80;;;18.80;92.50;;;;;;4868678;29;20044;-62
2022/09/30 12:46:57;;;;;;;4.32;2.67;;;18.90;92.20;;;;;;4884606;29;20566;-62
2022/09/30 12:49:26;;;;;;;3.80;2.90;;;18.70;91.60;;;;;;4874218;29;20104;-61
2022/09/30 12:52:02;;;;;;;3.42;2.70;;;18.50;91.50;;;;;;4873632;29;20033;-62
2022/09/30 12:54:57;;;;;;;3.08;1.85;;;18.60;91.80;;;;;;4870934;29;20495;-61
2022/09/30 12:57:27;;;;;;;2.13;1.70;;;18.80;91.30;;;;;;4861357;29;20543;-62
2022/09/30 13:00:02;;;;;;;3.05;1.88;;;19.00;91.10;;;;;;4877003;29;20044;-62
2022/09/30 13:02:41;;;;;;;2.80;1.65;;;19.00;91.20;;;;;;4877118;29;20091;-62
2022/09/30 13:05:25;;;;;;;2.75;1.55;;;18.90;91.10;;;;;;4873043;29;20052;-62
2022/09/30 13:08:03;;;;;;;3.08;1.60;;;18.70;91.00;;;;;;4874329;29;20049;-61
2022/09/30 13:10:33;;;;;;;2.92;1.52;;;18.40;90.90;;;;;;4874291;29;20504;-62
2022/09/30 13:13:31;;;;;;;4.75;1.80;;;18.20;91.50;;;;;;4887098;29;20468;-62
2022/09/30 13:16:02;;;;;;;5.43;2.00;;;18.10;91.90;;;;;;4868178;29;20045;-62
2022/09/30 13:18:30;;;;;;;5.35;2.17;;;18.00;92.40;;;;;;4871202;29;20048;-62
2022/09/30 13:21:15;;;;;;;2.90;1.85;;;18.20;92.50;;;;;;4888969;29;20143;-61
2022/09/30 13:23:46;;;;;;;3.40;1.88;;;18.50;92.60;;;;;;4875492;29;20049;-61
2022/09/30 13:26:32;;;;;;;2.30;2.10;;;18.90;91.70;;;;;;4876572;29;20099;-62